createdAt,value
2018-12-15T00:03:14.566Z,14.13
2018-12-15T00:08:21.079Z,13.27
2018-12-15T00:13:25.444Z,14.73
2018-12-15T00:18:29.341Z,14.47
2018-12-15T00:23:33.274Z,15.57
2018-12-15T00:28:36.961Z,15.23
2018-12-15T00:33:40.487Z,15.13
2018-12-15T00:38:44.157Z,13.43
2018-12-15T00:43:48.001Z,14.23
2018-12-15T00:48:51.486Z,14.33
2018-12-15T00:53:55.081Z,14.37
2018-12-15T00:58:58.581Z,15.00
2018-12-15T01:04:02.152Z,15.23
2018-12-15T01:09:06.362Z,13.60
2018-12-15T01:14:11.097Z,14.00
2018-12-15T01:19:14.536Z,14.30
2018-12-15T01:24:18.077Z,14.23
2018-12-15T01:29:21.821Z,14.00
2018-12-15T01:34:25.574Z,15.07
2018-12-15T01:39:29.075Z,14.30
2018-12-15T01:44:32.650Z,14.43
2018-12-15T01:49:36.267Z,14.30
2018-12-15T01:54:39.724Z,14.20
2018-12-15T01:59:43.270Z,13.70
2018-12-15T02:04:47.511Z,13.67
2018-12-15T02:09:51.049Z,14.00
2018-12-15T02:14:54.580Z,14.43
2018-12-15T02:19:58.266Z,14.27
2018-12-15T02:25:02.090Z,13.77
2018-12-15T02:35:20.296Z,13.97
2018-12-15T02:40:24.203Z,13.67
2018-12-15T02:45:27.668Z,13.87
2018-12-15T02:50:31.162Z,14.03
2018-12-15T02:55:34.601Z,13.40
2018-12-15T03:00:38.121Z,13.53
2018-12-15T03:05:41.701Z,14.80
2018-12-15T03:10:45.295Z,13.90
2018-12-15T03:15:48.882Z,13.90
2018-12-15T03:21:01.194Z,15.13
2018-12-15T03:26:06.151Z,16.13
2018-12-15T03:31:09.615Z,16.03
2018-12-15T03:36:13.154Z,17.57
2018-12-15T03:41:16.726Z,17.33
2018-12-15T03:46:20.192Z,16.10
2018-12-15T03:51:23.836Z,17.40
2018-12-15T03:56:27.554Z,18.60
2018-12-15T04:01:31.089Z,20.97
2018-12-15T04:06:34.702Z,19.73
2018-12-15T04:11:38.237Z,20.07
2018-12-15T04:16:41.815Z,21.07
2018-12-15T04:21:45.310Z,20.80
2018-12-15T04:26:48.795Z,21.10
2018-12-15T04:31:54.361Z,21.87
2018-12-15T04:36:58.589Z,21.43
2018-12-15T04:42:02.273Z,21.73
2018-12-15T04:47:06.308Z,22.03
2018-12-15T04:52:10.428Z,20.17
2018-12-15T04:57:14.301Z,22.13
2018-12-15T05:02:17.759Z,23.03
2018-12-15T05:07:21.302Z,22.23
2018-12-15T05:12:24.855Z,21.23
2018-12-15T05:17:28.262Z,23.07
2018-12-15T05:22:31.647Z,22.97
2018-12-15T05:27:35.040Z,22.53
2018-12-15T05:32:38.462Z,23.17
2018-12-15T05:37:42.019Z,23.50
2018-12-15T05:42:45.546Z,22.67
2018-12-15T05:47:48.958Z,23.20
2018-12-15T05:52:52.432Z,21.10
2018-12-15T05:57:56.116Z,23.20
2018-12-15T06:02:59.586Z,23.33
2018-12-15T06:08:04.066Z,23.27
2018-12-15T06:13:07.566Z,23.67
2018-12-15T06:18:11.459Z,24.70
2018-12-15T06:23:15.145Z,24.30
2018-12-15T06:28:18.631Z,24.67
2018-12-15T06:33:22.292Z,24.63
2018-12-15T06:38:25.995Z,25.53
2018-12-15T06:43:30.188Z,26.87
2018-12-15T06:48:38.087Z,25.33
2018-12-15T06:53:39.407Z,25.43
2018-12-15T06:58:42.958Z,24.97
2018-12-15T07:03:46.454Z,26.47
2018-12-15T07:08:49.948Z,26.17
2018-12-15T07:13:53.852Z,26.17
2018-12-15T07:18:57.466Z,25.50
2018-12-15T07:24:01.108Z,25.40
2018-12-15T07:29:04.809Z,24.87
2018-12-15T07:34:08.429Z,27.30
2018-12-15T07:39:12.183Z,25.80
2018-12-15T07:44:16.135Z,27.93
2018-12-15T07:49:19.722Z,27.73
2018-12-15T07:54:23.381Z,26.87
2018-12-15T07:59:27.092Z,27.10
2018-12-15T08:04:31.639Z,27.33
2018-12-15T08:09:35.593Z,27.10
2018-12-15T08:14:39.414Z,25.83
2018-12-15T08:19:43.083Z,27.37
2018-12-15T08:24:46.860Z,27.07
2018-12-15T08:29:50.537Z,26.50
2018-12-15T08:34:54.150Z,27.57
2018-12-15T08:39:57.866Z,27.50
2018-12-15T08:45:01.477Z,24.73
2018-12-15T08:50:05.478Z,25.70
2018-12-15T08:55:09.851Z,25.47
2018-12-15T09:00:13.691Z,25.17
2018-12-15T09:05:17.472Z,26.77
2018-12-15T09:10:21.048Z,25.77
2018-12-15T09:15:24.680Z,25.57
2018-12-15T09:20:28.238Z,24.33
2018-12-15T09:25:31.750Z,22.83
2018-12-15T09:30:35.340Z,22.83
2018-12-15T09:35:38.936Z,22.50
2018-12-15T09:40:42.762Z,22.00
2018-12-15T09:45:46.343Z,22.20
2018-12-15T09:50:49.941Z,22.23
2018-12-15T09:55:53.455Z,22.70
2018-12-15T10:00:56.957Z,22.00
2018-12-15T10:06:01.005Z,21.60
2018-12-15T10:11:04.828Z,22.43
2018-12-15T10:16:08.372Z,22.73
2018-12-15T10:21:11.811Z,21.63
2018-12-15T10:26:15.346Z,20.33
2018-12-15T10:31:25.838Z,19.90
2018-12-15T10:36:29.503Z,20.03
2018-12-15T10:41:33.168Z,21.20
2018-12-15T10:46:36.758Z,19.80
2018-12-15T10:51:42.453Z,19.73
2018-12-15T10:56:46.127Z,19.17
2018-12-15T11:01:49.703Z,18.57
2018-12-15T11:06:53.375Z,17.50
2018-12-15T11:11:57.975Z,16.63
2018-12-15T11:17:01.539Z,15.47
2018-12-15T11:22:05.160Z,14.97
2018-12-15T11:27:08.839Z,16.73
2018-12-15T11:32:12.376Z,16.77
2018-12-15T11:37:15.957Z,16.80
2018-12-15T11:42:19.894Z,15.87
2018-12-15T11:47:24.196Z,15.33
2018-12-15T11:52:27.750Z,15.20
2018-12-15T11:57:31.292Z,14.13
2018-12-15T12:02:34.833Z,13.13
2018-12-15T12:07:38.863Z,14.13
2018-12-15T12:12:42.377Z,14.50
2018-12-15T12:17:46.181Z,14.50
2018-12-15T12:22:49.811Z,14.90
2018-12-15T12:27:55.519Z,13.37
2018-12-15T12:32:59.459Z,13.77
2018-12-15T12:38:03.299Z,13.20
2018-12-15T12:43:07.777Z,12.90
2018-12-15T12:48:13.997Z,11.93
2018-12-15T12:58:32.872Z,11.80
2018-12-15T13:03:36.750Z,11.73
2018-12-15T13:08:42.489Z,9.30
2018-12-15T13:13:47.159Z,8.93
2018-12-15T13:18:52.826Z,7.43
2018-12-15T13:23:58.393Z,8.83
2018-12-15T13:29:02.519Z,7.23
2018-12-15T13:34:09.124Z,7.90
2018-12-15T13:39:14.574Z,8.33
2018-12-15T13:44:20.061Z,8.17
2018-12-15T13:49:25.142Z,8.37
2018-12-15T13:54:30.314Z,8.67
2018-12-15T13:59:36.196Z,8.80
2018-12-15T14:04:40.688Z,8.50
2018-12-15T14:09:45.910Z,9.70
2018-12-15T14:14:52.098Z,9.13
2018-12-15T14:19:57.187Z,9.03
2018-12-15T14:25:03.164Z,8.43
2018-12-15T14:30:08.552Z,9.20
2018-12-15T14:35:12.686Z,9.30
2018-12-15T14:40:18.873Z,9.70
2018-12-15T14:45:24.197Z,9.30
2018-12-15T14:50:29.168Z,10.13
2018-12-15T14:55:33.294Z,9.30
2018-12-15T15:00:37.335Z,10.37
2018-12-15T15:05:42.100Z,9.70
2018-12-15T15:10:46.424Z,9.83
2018-12-15T15:15:51.174Z,10.80
2018-12-15T15:20:58.668Z,10.50
2018-12-15T15:26:02.976Z,9.43
2018-12-15T15:31:14.046Z,9.87
2018-12-15T15:36:19.803Z,9.60
2018-12-15T15:41:24.144Z,10.93
2018-12-15T15:46:28.317Z,11.03
2018-12-15T15:51:32.706Z,11.17
2018-12-15T15:56:39.095Z,11.03
2018-12-15T16:01:43.323Z,11.90
2018-12-15T16:06:47.310Z,11.10
2018-12-15T16:11:51.299Z,11.57
2018-12-15T16:16:54.975Z,11.40
2018-12-15T16:21:59.392Z,11.77
2018-12-15T16:27:03.582Z,12.97
2018-12-15T16:32:07.754Z,12.87
2018-12-15T16:37:12.583Z,13.47
2018-12-15T16:42:17.034Z,13.57
2018-12-15T16:52:39.264Z,12.93
2018-12-15T16:57:44.762Z,13.20
2018-12-15T17:02:49.671Z,14.17
2018-12-15T17:07:54.007Z,14.43
2018-12-15T17:12:57.491Z,15.20
2018-12-15T17:18:01.947Z,14.57
2018-12-15T17:23:05.386Z,14.30
2018-12-15T17:28:09.055Z,16.10
2018-12-15T17:33:13.895Z,16.23
2018-12-15T17:38:17.633Z,15.07
2018-12-15T17:43:22.075Z,14.97
2018-12-15T17:48:25.811Z,16.27
2018-12-15T17:53:29.515Z,15.40
2018-12-15T17:58:33.254Z,14.53
2018-12-15T18:03:37.117Z,15.47
2018-12-15T18:08:40.809Z,15.73
2018-12-15T18:13:44.522Z,14.60
2018-12-15T18:18:48.762Z,13.67
2018-12-15T18:23:52.334Z,13.97
2018-12-15T18:28:56.019Z,14.47
2018-12-15T18:33:59.502Z,12.27
2018-12-15T18:39:04.967Z,14.90
2018-12-15T18:44:10.516Z,13.37
2018-12-15T18:49:14.146Z,12.80
2018-12-15T18:54:17.600Z,13.63
2018-12-15T18:59:21.661Z,17.43
2018-12-15T19:04:25.345Z,14.33
2018-12-15T19:09:28.786Z,13.77
2018-12-15T19:14:32.311Z,14.23
2018-12-15T19:19:35.705Z,12.50
2018-12-15T19:24:39.566Z,12.67
2018-12-15T19:29:43.103Z,12.27
2018-12-15T19:34:52.276Z,11.40
2018-12-15T19:39:52.045Z,11.00
2018-12-15T19:44:56.693Z,9.97
2018-12-15T19:50:00.636Z,11.03
2018-12-15T19:55:05.366Z,10.87
2018-12-15T20:00:09.530Z,9.63
2018-12-15T20:05:15.114Z,9.03
2018-12-15T20:10:21.496Z,9.03
2018-12-15T20:15:25.119Z,10.10
2018-12-15T20:20:29.102Z,9.07
2018-12-15T20:25:32.633Z,9.43
2018-12-15T20:30:36.105Z,9.47
2018-12-15T20:35:39.711Z,10.00
2018-12-15T20:40:43.203Z,9.80
2018-12-15T20:45:46.952Z,9.93
2018-12-15T20:50:50.414Z,10.90
2018-12-15T20:55:53.894Z,10.40
2018-12-15T21:00:57.390Z,11.47
2018-12-15T21:06:01.030Z,10.77
2018-12-15T21:11:04.554Z,11.70
2018-12-15T21:16:08.432Z,11.63
2018-12-15T21:21:12.078Z,11.53
2018-12-15T21:26:15.864Z,11.33
2018-12-15T21:31:19.343Z,10.57
2018-12-15T21:36:22.977Z,10.70
2018-12-15T21:41:26.442Z,9.90
2018-12-15T21:46:30.124Z,11.40
2018-12-15T21:51:33.715Z,11.67
2018-12-15T21:56:38.327Z,11.63
2018-12-15T22:01:42.112Z,12.07
2018-12-15T22:06:45.768Z,11.83
2018-12-15T22:11:49.590Z,12.13
2018-12-15T22:16:53.104Z,11.70
2018-12-15T22:22:02.795Z,13.07
2018-12-15T22:27:02.370Z,12.50
2018-12-15T22:32:06.475Z,11.97
2018-12-15T22:37:09.983Z,11.53
2018-12-15T22:42:13.720Z,13.27
2018-12-15T22:47:17.361Z,13.20
2018-12-15T22:52:27.794Z,13.97
2018-12-15T22:57:31.515Z,14.40
2018-12-15T23:02:36.458Z,15.10
2018-12-15T23:07:40.225Z,15.73
2018-12-15T23:12:43.655Z,16.87
2018-12-15T23:17:47.143Z,17.23
2018-12-15T23:22:50.654Z,16.90
2018-12-15T23:27:54.190Z,18.07
2018-12-15T23:32:57.805Z,17.87
2018-12-15T23:38:01.406Z,18.80
2018-12-15T23:43:04.880Z,18.93
2018-12-15T23:48:08.517Z,19.10
2018-12-15T23:53:12.156Z,18.57
2018-12-15T23:58:19.003Z,19.57
